Time;durP1;ratioP1;P1;durP2;ratioP2;P2;SDS_P1;SDS_P2;PMS_P1;PMS_P2;Temp;Humidity;BMP_temperature;BMP_pressure;BME280_temperature;BME280_humidity;BME280_pressure;Samples;Min_cycle;Max_cycle;Signal;HPM_P1;HPM_P2
2022/03/24 00:04:22;;;;;;;26.52;18.30;;;;;;;11.38;28.15;98872.34;12691913;23;20029;-84
2022/03/24 00:09:44;;;;;;;28.58;17.67;;;;;;;11.32;28.12;98861.44;12691958;23;20014;-85
2022/03/24 00:15:06;;;;;;;26.52;18.05;;;;;;;11.28;28.30;98865.94;12691646;23;20025;-85
2022/03/24 00:20:28;;;;;;;27.85;18.73;;;;;;;11.17;28.20;98861.56;12671632;23;20377;-85
2022/03/24 00:25:50;;;;;;;25.83;17.95;;;;;;;11.11;28.35;98864.59;12687074;23;20022;-84
2022/03/24 00:31:11;;;;;;;26.38;17.70;;;;;;;11.07;28.42;98860.72;12647643;23;20085;-85
2022/03/24 00:36:33;;;;;;;25.58;18.05;;;;;;;11.00;28.49;98856.69;12691787;23;20018;-84
2022/03/24 00:41:54;;;;;;;27.60;17.85;;;;;;;10.98;28.99;98850.19;12651054;23;20078;-85
2022/03/24 00:47:17;;;;;;;28.70;17.90;;;;;;;10.99;28.72;98855.19;12712016;23;20050;-84
2022/03/24 00:52:44;;;;;;;21.60;16.38;;;;;;;10.92;28.67;98853.22;12752046;23;20488;-82
2022/03/24 00:58:06;;;;;;;27.45;17.50;;;;;;;10.86;28.89;98847.13;12671326;23;20021;-82
2022/03/24 01:03:28;;;;;;;23.25;16.05;;;;;;;10.87;28.93;98848.59;12669733;23;20029;-85
2022/03/24 01:08:50;;;;;;;29.35;17.13;;;;;;;10.84;28.99;98850.50;12691007;23;20022;-84
2022/03/24 01:14:16;;;;;;;27.13;16.58;;;;;;;10.81;29.12;98850.91;12671486;23;20006;-81
2022/03/24 01:19:38;;;;;;;26.83;17.83;;;;;;;10.76;29.42;98844.22;12644938;23;20018;-83
2022/03/24 01:24:59;;;;;;;25.73;17.55;;;;;;;10.72;29.18;98843.16;12551516;23;20019;-84
2022/03/24 01:30:21;;;;;;;26.02;17.10;;;;;;;10.73;29.41;98839.03;12571278;23;20026;-82
2022/03/24 01:35:43;;;;;;;25.67;17.88;;;;;;;10.65;29.23;98836.31;12552442;23;20074;-83
2022/03/24 01:41:07;;;;;;;24.40;17.15;;;;;;;10.62;29.44;98839.50;12591913;23;20018;-81
2022/03/24 01:46:29;;;;;;;26.38;16.95;;;;;;;10.58;29.34;98837.84;12573176;23;20011;-83
2022/03/24 01:51:51;;;;;;;25.05;15.88;;;;;;;10.50;29.68;98833.59;12666727;23;20025;-85
2022/03/24 01:57:17;;;;;;;26.52;17.20;;;;;;;10.42;29.77;98836.47;12692885;23;19998;-82
2022/03/24 02:02:41;;;;;;;24.48;17.23;;;;;;;10.35;29.67;98837.25;12672676;23;20025;-84
2022/03/24 02:08:05;;;;;;;26.20;17.05;;;;;;;10.29;29.71;98829.09;12692022;23;20022;-83
2022/03/24 02:13:29;;;;;;;25.25;17.52;;;;;;;10.24;29.80;98824.47;12673270;23;20018;-85
2022/03/24 02:18:51;;;;;;;23.83;16.98;;;;;;;10.23;29.90;98825.78;12652246;23;20022;-83
2022/03/24 02:30:29;;;;;;;;;;;;;;;10.10;30.19;98823.22;12645269;23;20033;-82
2022/03/24 02:42:08;;;;;;;21.70;15.75;;;;;;;10.04;30.17;98812.28;12623075;23;20017;-82
2022/03/24 02:47:29;;;;;;;26.60;17.45;;;;;;;9.99;30.57;98818.81;12581896;23;20006;-83
2022/03/24 02:52:51;;;;;;;20.92;15.35;;;;;;;9.95;30.55;98824.06;12614228;23;20358;-83
2022/03/24 02:58:13;;;;;;;27.33;16.90;;;;;;;9.93;30.34;98823.84;12614870;23;20018;-84
2022/03/24 03:03:34;;;;;;;26.65;16.45;;;;;;;9.93;30.31;98817.53;12609633;23;20029;-85
2022/03/24 03:21:12;;;;;;;22.05;15.60;;;;;;;9.80;30.62;98820.59;12692477;23;19923;-84
2022/03/24 03:26:45;;;;;;;27.90;15.77;;;;;;;9.76;31.06;98818.19;12554799;23;20015;-81
2022/03/24 03:32:07;;;;;;;26.10;16.65;;;;;;;9.71;30.86;98816.34;12614408;23;20070;-82
2022/03/24 03:37:30;;;;;;;25.45;16.58;;;;;;;9.64;30.89;98820.63;12571842;23;20009;-79
2022/03/24 03:42:52;;;;;;;25.48;15.90;;;;;;;9.61;30.98;98826.59;12632901;23;20006;-78
2022/03/24 03:54:31;;;;;;;23.52;16.58;;;;;;;9.46;31.18;98828.16;12648297;23;20033;-83
2022/03/24 04:12:23;;;;;;;24.77;16.83;;;;;;;9.27;31.20;98833.41;12701912;23;20016;-79
2022/03/24 04:17:45;;;;;;;24.90;16.45;;;;;;;9.19;31.99;98824.31;12616214;23;20026;-82
2022/03/24 04:23:07;;;;;;;22.92;16.00;;;;;;;9.16;31.89;98828.19;12615232;23;20018;-82
2022/03/24 04:28:28;;;;;;;27.27;16.75;;;;;;;9.11;32.20;98835.44;12575980;23;20018;-83
2022/03/24 04:33:50;;;;;;;26.35;16.77;;;;;;;9.10;31.73;98833.22;12654407;23;20013;-82
2022/03/24 04:39:12;;;;;;;26.58;17.40;;;;;;;9.07;31.88;98834.34;12579838;23;20083;-85
2022/03/24 04:51:06;;;;;;;25.92;16.65;;;;;;;9.04;31.91;98829.88;12558202;23;20026;-82
2022/03/24 05:15:46;;;;;;;27.95;17.70;;;;;;;9.18;32.35;98837.50;12668582;23;19944;-84
2022/03/24 05:21:08;;;;;;;23.73;17.55;;;;;;;9.41;32.79;98831.88;12602638;23;20045;-83
2022/03/24 05:32:45;;;;;;;;;;;;;;;10.00;32.56;98842.63;12576948;23;20025;-83
2022/03/24 05:38:07;;;;;;;30.83;19.08;;;;;;;10.35;32.58;98844.88;12713224;23;19905;-84
2022/03/24 05:43:29;;;;;;;29.05;19.52;;;;;;;10.77;32.62;98842.16;12712704;23;20014;-85
2022/03/24 05:48:51;;;;;;;33.13;20.00;;;;;;;11.66;32.21;98845.97;12651993;23;20018;-86
2022/03/24 05:54:31;;;;;;;32.40;19.77;;;;;;;14.86;30.68;98856.47;12672910;23;20226;-81
2022/03/24 06:06:08;;;;;;;29.83;19.27;;;;;;;20.01;26.34;98870.34;12568586;23;20397;-78
2022/03/24 06:11:29;;;;;;;37.17;21.55;;;;;;;21.65;24.96;98861.38;12585988;23;20097;-87
2022/03/24 06:16:50;;;;;;;32.97;21.85;;;;;;;21.77;23.70;98859.03;12578832;23;20019;-88
2022/03/24 06:22:12;;;;;;;32.05;20.48;;;;;;;20.72;24.40;98863.69;12578376;23;20341;-89
2022/03/24 06:27:33;;;;;;;33.28;20.15;;;;;;;20.79;24.67;98866.19;12599694;23;20018;-87
2022/03/24 06:32:56;;;;;;;36.78;19.85;;;;;;;21.65;26.06;98869.91;12579180;23;20018;-87
2022/03/24 06:38:18;;;;;;;30.42;20.17;;;;;;;25.29;24.68;98871.13;12559804;23;20026;-85
2022/03/24 06:43:38;;;;;;;31.33;19.60;;;;;;;30.75;18.88;98880.75;12576706;23;20050;-88
2022/03/24 06:49:00;;;;;;;30.77;19.35;;;;;;;34.97;14.08;98885.88;12597713;23;20022;-88
2022/03/24 06:54:20;;;;;;;24.75;17.42;;;;;;;38.11;12.00;98874.22;12599295;23;20069;-87
2022/03/24 06:59:41;;;;;;;;;;;;;;;40.51;7.92;98881.59;12598260;23;20025;-86
2022/03/24 07:05:02;;;;;;;;;;;;;;;42.33;6.99;98883.34;12598071;23;19917;-86
2022/03/24 07:10:23;;;;;;;15.93;14.23;;;;;;;43.83;6.58;98884.53;12578060;23;19917;-88
2022/03/24 07:15:44;;;;;;;17.38;14.25;;;;;;;45.22;5.32;98884.59;12558497;23;20022;-89
2022/03/24 07:21:06;;;;;;;14.55;13.05;;;;;;;46.25;4.56;98894.97;12578891;23;20050;-87
2022/03/24 07:26:27;;;;;;;16.80;13.00;;;;;;;47.22;3.91;98891.22;12558315;23;20094;-88
2022/03/24 07:31:48;;;;;;;15.13;13.05;;;;;;;47.97;3.39;98899.66;12577758;23;20018;-88
2022/03/24 07:37:09;;;;;;;15.02;12.48;;;;;;;48.43;2.71;98898.75;12577817;23;20310;-88
2022/03/24 07:42:32;;;;;;;17.23;13.30;;;;;;;49.13;2.10;98897.56;12578536;23;20023;-88
2022/03/24 07:48:16;;;;;;;14.80;12.48;;;;;;;49.71;1.59;98897.81;12557875;23;20337;-88
2022/03/24 07:53:37;;;;;;;17.20;12.88;;;;;;;49.99;1.29;98889.00;12596563;23;20046;-86
2022/03/24 07:58:59;;;;;;;15.95;11.52;;;;;;;50.36;1.19;98886.91;12597161;23;20025;-88
2022/03/24 08:04:20;;;;;;;13.15;11.82;;;;;;;49.80;0.95;98895.63;12557475;23;20038;-87
2022/03/24 08:09:41;;;;;;;13.32;11.18;;;;;;;50.02;0.95;98887.28;12555268;23;20086;-86
2022/03/24 08:15:03;;;;;;;11.50;10.38;;;;;;;50.99;1.02;98884.94;12596896;23;20441;-85
2022/03/24 08:20:25;;;;;;;15.90;11.68;;;;;;;51.04;0.87;98891.94;12595786;23;20465;-84
2022/03/24 08:25:46;;;;;;;13.05;10.57;;;;;;;51.58;0.25;98895.03;12552530;23;20014;-85
2022/03/24 08:31:08;;;;;;;15.40;10.60;;;;;;;52.40;0.59;98897.06;12576242;23;20049;-87
2022/03/24 08:36:32;;;;;;;11.52;10.38;;;;;;;52.81;0.00;98889.03;12537064;23;20018;-86
2022/03/24 08:41:54;;;;;;;12.35;8.98;;;;;;;53.04;0.57;98887.03;12556330;23;20045;-82
2022/03/24 08:47:15;;;;;;;14.32;10.68;;;;;;;52.42;0.00;98893.97;12576830;23;20025;-83
2022/03/24 08:52:37;;;;;;;13.30;9.95;;;;;;;52.98;0.02;98891.25;12532746;23;20434;-84
2022/03/24 08:57:58;;;;;;;12.02;9.63;;;;;;;53.33;0.00;98888.16;12576188;23;20018;-83
2022/03/24 09:03:19;;;;;;;10.18;8.95;;;;;;;52.99;0.10;98894.91;12591313;23;20049;-84
2022/03/24 09:08:41;;;;;;;10.05;8.80;;;;;;;52.32;0.00;98887.28;12512561;23;20027;-85
2022/03/24 09:14:02;;;;;;;10.05;8.60;;;;;;;53.17;0.11;98890.31;12576262;23;20038;-85
2022/03/24 09:19:23;;;;;;;9.95;8.93;;;;;;;53.04;0.13;98895.97;12551886;23;20024;-84
2022/03/24 09:24:47;;;;;;;11.43;9.67;;;;;;;53.30;0.00;98893.63;12557106;23;20019;-84
2022/03/24 09:30:09;;;;;;;9.80;8.82;;;;;;;53.25;0.00;98898.53;12532408;23;20030;-84
2022/03/24 09:35:31;;;;;;;12.30;8.95;;;;;;;52.76;0.00;98896.91;12554736;23;20029;-84
2022/03/24 09:40:52;;;;;;;11.80;9.40;;;;;;;51.39;0.00;98907.00;12535663;23;20018;-83
2022/03/24 09:46:14;;;;;;;11.55;9.45;;;;;;;51.68;0.00;98897.16;12531274;23;20042;-85
2022/03/24 09:51:40;;;;;;;10.63;9.38;;;;;;;52.06;0.10;98901.44;12577609;23;20454;-84
2022/03/24 09:57:05;;;;;;;10.75;9.68;;;;;;;52.64;0.00;98900.94;12559597;23;20026;-83
2022/03/24 10:02:28;;;;;;;10.80;9.60;;;;;;;53.15;0.00;98902.44;12578587;23;20018;-83
2022/03/24 10:07:51;;;;;;;10.53;9.20;;;;;;;53.40;0.00;98889.72;12592365;23;20093;-85
2022/03/24 10:13:12;;;;;;;12.07;9.32;;;;;;;51.80;0.00;98893.16;12579856;23;20087;-84
2022/03/24 10:18:33;;;;;;;11.05;9.95;;;;;;;52.96;0.00;98893.72;12558653;23;20045;-83
2022/03/24 10:24:00;;;;;;;10.98;9.70;;;;;;;53.07;0.00;98897.19;12558746;23;20026;-83
2022/03/24 10:29:23;;;;;;;13.57;10.10;;;;;;;51.29;0.00;98895.94;12559059;23;20097;-84
2022/03/24 10:34:48;;;;;;;11.18;10.18;;;;;;;50.37;0.04;98889.00;12578858;23;20030;-83
2022/03/24 10:40:11;;;;;;;11.32;10.25;;;;;;;50.02;0.00;98882.06;12536512;23;20021;-84
2022/03/24 10:45:34;;;;;;;12.17;10.97;;;;;;;49.41;0.14;98886.59;12598242;23;20015;-84
2022/03/24 10:50:55;;;;;;;12.15;10.98;;;;;;;49.53;0.19;98879.09;12598256;23;20018;-84
2022/03/24 10:56:25;;;;;;;13.10;11.90;;;;;;;49.90;0.23;98883.00;12578750;23;20425;-80
2022/03/24 11:01:47;;;;;;;15.48;13.88;;;;;;;49.50;0.00;98884.44;12576764;23;20030;-84
2022/03/24 11:07:08;;;;;;;17.15;15.45;;;;;;;44.44;0.89;98879.19;12557923;23;20521;-85
2022/03/24 11:12:31;;;;;;;19.05;17.08;;;;;;;38.41;2.94;98874.94;12577639;23;20345;-86
2022/03/24 11:17:53;;;;;;;23.17;18.38;;;;;;;35.39;4.71;98863.59;12558957;23;20034;-87
2022/03/24 11:23:19;;;;;;;20.33;18.38;;;;;;;33.36;5.56;98859.78;12558144;23;20077;-78
2022/03/24 11:28:41;;;;;;;21.25;19.05;;;;;;;32.16;5.99;98864.50;12596862;23;20025;-78
2022/03/24 11:34:04;;;;;;;27.38;20.20;;;;;;;30.98;7.07;98858.53;12558186;23;20442;-78
2022/03/24 11:39:25;;;;;;;22.65;19.27;;;;;;;30.67;7.42;98862.69;12597426;23;20019;-86
2022/03/24 11:44:51;;;;;;;24.35;19.35;;;;;;;30.33;7.62;98854.56;12577646;23;20018;-84
2022/03/24 11:50:14;;;;;;;26.33;21.13;;;;;;;30.19;7.75;98849.44;12577182;23;20465;-87
2022/03/24 11:55:37;;;;;;;23.02;20.55;;;;;;;29.91;8.15;98833.38;12577806;23;20021;-85
2022/03/24 12:01:19;;;;;;;24.00;21.50;;;;;;;28.86;9.13;98824.44;12577923;23;20041;-84
2022/03/24 12:06:43;;;;;;;27.77;20.20;;;;;;;28.40;8.87;98822.41;12596353;23;20026;-79
2022/03/24 12:12:07;;;;;;;22.70;20.33;;;;;;;27.93;9.13;98815.94;12596177;23;20022;-81
2022/03/24 12:17:31;;;;;;;22.75;20.13;;;;;;;27.47;9.59;98815.88;12596947;23;20038;-81
2022/03/24 12:22:58;;;;;;;22.80;19.65;;;;;;;27.30;9.60;98808.41;12577454;23;20029;-81
2022/03/24 12:28:26;;;;;;;24.65;19.52;;;;;;;27.16;9.56;98808.16;12598250;23;20019;-81
2022/03/24 12:33:48;;;;;;;26.10;20.02;;;;;;;26.65;9.86;98799.28;12557319;23;20025;-81
2022/03/24 12:39:10;;;;;;;23.85;19.48;;;;;;;26.53;10.26;98794.03;12577004;23;20025;-82
2022/03/24 12:44:51;;;;;;;23.08;17.95;;;;;;;26.75;10.18;98795.91;12597249;23;20187;-83
2022/03/24 12:50:15;;;;;;;22.80;18.35;;;;;;;26.31;10.40;98784.22;12596563;23;20049;-82
2022/03/24 12:55:45;;;;;;;24.23;18.75;;;;;;;26.01;10.64;98785.00;12597088;23;20022;-80
2022/03/24 13:01:06;;;;;;;22.80;18.08;;;;;;;25.76;10.61;98786.56;12576654;23;20026;-81
2022/03/24 13:06:28;;;;;;;23.15;17.92;;;;;;;25.85;10.36;98788.19;12559193;23;20022;-78
2022/03/24 13:12:02;;;;;;;24.10;16.95;;;;;;;25.82;10.56;98778.13;12554538;23;20097;-79
2022/03/24 13:17:23;;;;;;;19.35;16.75;;;;;;;25.94;10.29;98769.09;12614841;23;20018;-79
2022/03/24 13:22:51;;;;;;;25.25;18.58;;;;;;;25.53;10.26;98770.97;12573211;23;20465;-79
2022/03/24 13:28:12;;;;;;;23.73;19.08;;;;;;;25.68;10.33;98766.34;12570712;23;20025;-80
2022/03/24 13:33:33;;;;;;;25.75;19.35;;;;;;;25.06;11.55;98757.63;12571392;23;20019;-80
2022/03/24 13:38:54;;;;;;;25.77;21.33;;;;;;;24.69;11.45;98758.75;12570954;23;20370;-79
2022/03/24 13:44:15;;;;;;;25.25;20.30;;;;;;;24.69;11.35;98759.47;12553358;23;20050;-80
2022/03/24 13:49:35;;;;;;;27.35;20.52;;;;;;;24.03;11.56;98756.13;12594904;23;20022;-81
2022/03/24 13:55:22;;;;;;;25.20;19.73;;;;;;;23.86;11.65;98754.19;12595065;23;20042;-82
2022/03/24 14:00:50;;;;;;;22.98;18.90;;;;;;;23.66;11.98;98749.28;12598282;23;20065;-82
2022/03/24 14:06:12;;;;;;;25.20;19.33;;;;;;;23.35;12.24;98741.84;12598923;23;20022;-81
2022/03/24 14:11:33;;;;;;;22.55;19.02;;;;;;;23.22;12.44;98742.84;12575398;23;20029;-82
2022/03/24 14:16:54;;;;;;;23.85;17.70;;;;;;;22.94;12.28;98744.72;12574716;23;20025;-82
2022/03/24 14:22:15;;;;;;;21.20;16.63;;;;;;;22.84;12.36;98745.81;12574885;23;20022;-78
2022/03/24 14:27:36;;;;;;;22.23;16.02;;;;;;;22.72;12.26;98742.53;12575028;23;20679;-82
2022/03/24 14:32:56;;;;;;;20.55;16.80;;;;;;;22.54;12.46;98728.38;12636017;23;20026;-82
2022/03/24 14:38:18;;;;;;;23.88;17.23;;;;;;;22.43;12.46;98723.00;12559959;23;20018;-82
2022/03/24 14:43:39;;;;;;;20.20;15.45;;;;;;;22.47;12.49;98723.84;12559180;23;20018;-84
2022/03/24 14:49:01;;;;;;;22.88;15.75;;;;;;;22.30;12.75;98724.66;12578514;23;20022;-84
2022/03/24 14:54:22;;;;;;;20.95;15.93;;;;;;;22.06;12.67;98718.75;12619139;23;20097;-85
2022/03/24 14:59:43;;;;;;;22.23;16.75;;;;;;;21.90;12.54;98713.19;12558890;23;20018;-84
2022/03/24 15:05:05;;;;;;;20.20;16.17;;;;;;;21.76;12.89;98704.13;12587652;23;20029;-85
2022/03/24 15:10:27;;;;;;;25.08;16.58;;;;;;;21.73;13.00;98696.91;12579673;23;20341;-85
2022/03/24 15:16:03;;;;;;;17.70;15.07;;;;;;;21.85;13.14;98702.31;12578535;23;20018;-84
2022/03/24 15:21:26;;;;;;;19.55;15.90;;;;;;;21.72;13.00;98698.28;12583297;23;20089;-85
2022/03/24 15:26:47;;;;;;;;;;;;;;;21.46;13.31;98694.41;12559799;23;20098;-85
2022/03/24 15:32:09;;;;;;;23.52;16.45;;;;;;;21.31;13.09;98691.00;12597523;23;20228;-84
2022/03/24 15:37:30;;;;;;;21.13;16.88;;;;;;;21.10;13.11;98691.53;12598079;23;20330;-85
2022/03/24 15:42:51;;;;;;;22.48;16.63;;;;;;;21.01;13.74;98693.31;12577841;23;20502;-85
2022/03/24 15:48:12;;;;;;;19.02;14.95;;;;;;;20.73;13.29;98690.00;12596738;23;20330;-85
2022/03/24 15:53:33;;;;;;;18.35;15.32;;;;;;;20.49;13.78;98686.88;12577042;23;20311;-85
2022/03/24 15:58:53;;;;;;;22.30;17.65;;;;;;;20.18;13.66;98687.59;12576567;23;20069;-85
2022/03/24 16:04:15;;;;;;;23.52;16.83;;;;;;;19.85;14.10;98696.00;12588987;23;20018;-85
2022/03/24 16:09:36;;;;;;;25.33;16.60;;;;;;;19.75;14.26;98698.34;12582416;23;20041;-86
2022/03/24 16:14:57;;;;;;;25.10;16.90;;;;;;;19.63;14.22;98687.94;12577067;23;20027;-85
2022/03/24 16:20:19;;;;;;;20.08;15.45;;;;;;;19.49;14.41;98684.38;12596515;23;20018;-85
2022/03/24 16:25:40;;;;;;;21.88;16.35;;;;;;;19.26;14.32;98696.75;12596767;23;20015;-84
2022/03/24 16:31:00;;;;;;;22.20;15.82;;;;;;;19.08;14.37;98690.94;12575913;23;20018;-84
2022/03/24 16:36:21;;;;;;;20.92;15.60;;;;;;;18.93;15.05;98697.25;12574146;23;20018;-84
2022/03/24 16:41:42;;;;;;;22.55;15.75;;;;;;;18.74;15.04;98701.28;12576693;23;20456;-83
2022/03/24 16:47:04;;;;;;;20.10;15.13;;;;;;;18.54;15.46;98695.28;12576445;23;20022;-85
2022/03/24 16:52:26;;;;;;;22.67;15.47;;;;;;;18.36;15.51;98702.81;12596638;23;20018;-81
2022/03/24 16:57:47;;;;;;;22.27;15.82;;;;;;;18.16;15.84;98694.03;12595702;23;20018;-84
2022/03/24 17:03:08;;;;;;;24.98;16.55;;;;;;;18.00;16.26;98691.06;12613920;23;20018;-84
2022/03/24 17:08:31;;;;;;;22.40;15.65;;;;;;;17.87;16.11;98697.41;12566332;23;20022;-87
2022/03/24 17:13:52;;;;;;;25.55;16.73;;;;;;;17.69;16.65;98702.03;12596595;23;20067;-84
2022/03/24 17:19:12;;;;;;;26.20;15.90;;;;;;;17.52;16.68;98700.41;12595364;23;20069;-79
2022/03/24 17:24:33;;;;;;;24.52;17.08;;;;;;;17.34;16.97;98702.94;12596262;23;20074;-87
2022/03/24 17:29:54;;;;;;;26.35;17.40;;;;;;;17.19;17.17;98706.34;12595302;23;20018;-87
2022/03/24 17:35:17;;;;;;;25.20;16.23;;;;;;;17.05;17.59;98705.50;12575484;23;20021;-84
2022/03/24 17:40:40;;;;;;;25.13;17.02;;;;;;;16.86;18.13;98712.91;12595658;23;20085;-86
2022/03/24 17:46:00;;;;;;;25.98;17.30;;;;;;;16.69;17.96;98710.50;12576190;23;20333;-85
2022/03/24 17:51:21;;;;;;;22.35;16.40;;;;;;;16.51;18.09;98712.22;12614980;23;20014;-85
2022/03/24 17:56:41;;;;;;;29.13;18.05;;;;;;;16.35;18.41;98723.25;12556054;23;20018;-86
2022/03/24 18:02:03;;;;;;;26.52;18.60;;;;;;;16.22;18.62;98727.44;12575517;23;20098;-85
2022/03/24 18:07:24;;;;;;;26.55;17.40;;;;;;;16.17;18.88;98731.31;12575683;23;20027;-83
2022/03/24 18:12:59;;;;;;;25.65;18.48;;;;;;;16.04;18.97;98740.38;12541852;23;20533;-79
2022/03/24 18:18:23;;;;;;;28.08;18.58;;;;;;;15.86;19.69;98750.50;12579981;23;20078;-79
2022/03/24 18:23:44;;;;;;;30.17;20.23;;;;;;;15.70;19.52;98750.22;12561543;23;20509;-78
2022/03/24 18:29:05;;;;;;;29.15;19.85;;;;;;;15.58;19.94;98757.84;12542270;23;20324;-79
2022/03/24 18:34:25;;;;;;;29.08;20.02;;;;;;;15.44;19.88;98760.47;12544069;23;20027;-78
2022/03/24 18:39:46;;;;;;;37.78;19.30;;;;;;;15.27;20.37;98757.97;12586037;23;20029;-77
2022/03/24 18:45:07;;;;;;;29.13;19.85;;;;;;;15.17;20.38;98766.50;12545609;23;20019;-78
2022/03/24 18:50:27;;;;;;;31.55;19.30;;;;;;;15.13;20.80;98769.03;12567386;23;20051;-78
2022/03/24 18:55:48;;;;;;;29.90;18.88;;;;;;;15.07;20.64;98769.38;12546634;23;20066;-77
2022/03/24 19:01:10;;;;;;;33.30;20.30;;;;;;;15.01;20.96;98776.66;12567599;23;20038;-77
2022/03/24 19:06:31;;;;;;;31.10;20.13;;;;;;;14.86;21.04;98789.78;12526887;23;20023;-78
2022/03/24 19:11:52;;;;;;;27.60;19.65;;;;;;;14.72;21.31;98793.69;12487252;23;20019;-77
2022/03/24 19:17:14;;;;;;;31.98;20.23;;;;;;;14.58;21.61;98793.47;12453647;23;20019;-81
2022/03/24 19:22:35;;;;;;;27.83;18.67;;;;;;;14.47;21.64;98789.19;12501809;23;20030;-80
2022/03/24 20:24:26;;;;;;;28.27;17.85;;;;;;;13.43;22.72;98817.59;12696398;23;20022;-84
2022/03/24 20:29:47;;;;;;;26.63;17.85;;;;;;;13.35;23.19;98822.63;12691060;23;20014;-80
2022/03/24 20:35:09;;;;;;;32.03;19.10;;;;;;;13.25;23.31;98824.66;12670330;23;20022;-83
2022/03/24 20:40:37;;;;;;;30.02;19.52;;;;;;;13.20;23.39;98829.22;12709800;23;20014;-82
2022/03/24 20:45:58;;;;;;;30.27;19.40;;;;;;;13.18;23.40;98823.44;12665578;23;20017;-84
2022/03/24 20:51:20;;;;;;;26.13;16.83;;;;;;;13.15;23.39;98827.44;12685582;23;20014;-84
2022/03/24 20:56:41;;;;;;;26.17;18.50;;;;;;;13.09;23.58;98830.50;12701189;23;20029;-78
2022/03/24 21:02:03;;;;;;;25.45;17.85;;;;;;;13.00;23.59;98828.41;12651456;23;20033;-76
2022/03/24 21:07:24;;;;;;;30.73;17.95;;;;;;;12.93;23.81;98822.94;12653086;23;20022;-78
2022/03/24 21:12:46;;;;;;;30.27;19.02;;;;;;;12.88;23.97;98825.44;12658008;23;20014;-78
2022/03/24 21:18:08;;;;;;;26.58;17.92;;;;;;;12.80;23.99;98833.22;12659824;23;20110;-78
2022/03/24 21:23:29;;;;;;;27.33;18.42;;;;;;;12.76;24.09;98827.34;12659771;23;20026;-80
2022/03/24 21:28:50;;;;;;;32.25;17.77;;;;;;;12.71;24.01;98836.00;12658376;23;20024;-80
2022/03/24 21:34:10;;;;;;;32.47;18.60;;;;;;;12.66;24.19;98839.84;12716933;23;20082;-82
2022/03/24 21:39:33;;;;;;;29.50;18.67;;;;;;;12.63;24.21;98833.31;12707411;23;20071;-81
2022/03/24 21:44:54;;;;;;;29.67;17.95;;;;;;;12.57;24.36;98832.88;12660028;23;20109;-82
2022/03/24 21:50:15;;;;;;;25.25;18.65;;;;;;;12.53;24.41;98832.53;12671474;23;20065;-80
2022/03/24 21:55:35;;;;;;;28.83;18.98;;;;;;;12.44;24.54;98833.97;12669330;23;20025;-83
2022/03/24 22:00:56;;;;;;;31.50;18.88;;;;;;;12.31;24.70;98837.16;12666081;23;20014;-76
2022/03/24 22:06:17;;;;;;;31.02;18.83;;;;;;;12.19;24.65;98842.53;12672097;23;20077;-76
2022/03/24 22:11:39;;;;;;;34.50;19.23;;;;;;;12.14;24.91;98835.13;12694603;23;20036;-81
2022/03/24 22:16:59;;;;;;;29.67;18.65;;;;;;;12.04;24.97;98835.06;12683090;23;20029;-75
2022/03/24 22:22:20;;;;;;;33.42;20.67;;;;;;;12.03;25.18;98830.06;12693166;23;20021;-75
2022/03/24 22:27:41;;;;;;;32.92;19.58;;;;;;;11.92;25.35;98827.78;12658928;23;20029;-75
2022/03/24 22:33:02;;;;;;;28.42;17.50;;;;;;;11.86;25.41;98832.88;12640273;23;20325;-75
2022/03/24 22:38:23;;;;;;;30.20;18.88;;;;;;;11.81;25.47;98825.50;12657084;23;20018;-75
2022/03/24 22:43:44;;;;;;;31.00;18.73;;;;;;;11.79;25.44;98833.72;12636277;23;20057;-75
2022/03/24 22:49:04;;;;;;;30.80;19.48;;;;;;;11.68;25.63;98832.91;12616750;23;20021;-75
2022/03/24 22:54:25;;;;;;;30.83;19.88;;;;;;;11.63;25.77;98831.09;12660200;23;20018;-75
2022/03/24 22:59:46;;;;;;;32.22;20.65;;;;;;;11.51;26.02;98830.09;12662517;23;20018;-75
2022/03/24 23:05:08;;;;;;;34.55;20.15;;;;;;;11.39;26.16;98821.47;12633202;23;20021;-75
2022/03/24 23:10:29;;;;;;;31.65;19.88;;;;;;;11.29;26.38;98819.91;12644710;23;20378;-75
2022/03/24 23:15:49;;;;;;;32.30;20.55;;;;;;;11.16;26.67;98830.09;12664059;23;20014;-75
2022/03/24 23:21:10;;;;;;;34.30;20.40;;;;;;;11.09;26.83;98833.69;12664317;23;20029;-75
2022/03/24 23:26:31;;;;;;;33.13;20.60;;;;;;;11.08;26.74;98834.25;12644978;23;20334;-75
2022/03/24 23:31:51;;;;;;;31.60;19.52;;;;;;;10.99;26.91;98824.47;12644591;23;20038;-75
2022/03/24 23:37:12;;;;;;;30.77;20.70;;;;;;;10.95;27.08;98829.72;12663065;23;20331;-75
2022/03/24 23:42:33;;;;;;;35.10;19.80;;;;;;;10.88;27.43;98827.72;12684116;23;20025;-75
2022/03/24 23:47:54;;;;;;;33.03;20.30;;;;;;;10.80;27.12;98832.63;12663184;23;20021;-76
2022/03/24 23:53:15;;;;;;;30.77;20.35;;;;;;;10.73;27.66;98837.00;12642942;23;20025;-75
2022/03/24 23:58:36;;;;;;;31.33;20.58;;;;;;;10.64;28.16;98832.03;12641048;23;20021;-75
